Time;durP1;ratioP1;P1;durP2;ratioP2;P2;SDS_P1;SDS_P2;PMS_P1;PMS_P2;Temp;Humidity;BMP_temperature;BMP_pressure;BME280_temperature;BME280_humidity;BME280_pressure;Samples;Min_cycle;Max_cycle;Signal;HPM_P1;HPM_P2
2021/12/11 00:01:43;;;;;;;44.70;11.87;;;-0.30;99.90;;;;;;5071268;28;20185;-77
2021/12/11 00:04:14;;;;;;;33.23;12.07;;;-0.40;99.90;;;;;;5070428;28;20196;-80
2021/12/11 00:06:44;;;;;;;38.57;11.53;;;-0.40;99.90;;;;;;5070483;28;20231;-78
2021/12/11 00:09:19;;;;;;;42.20;10.73;;;-0.50;99.90;;;;;;5060683;28;20245;-77
2021/12/11 00:11:49;;;;;;;31.43;12.67;;;-0.50;99.90;;;;;;5070993;28;20686;-80
2021/12/11 00:14:16;;;;;;;30.73;11.60;;;-0.60;99.90;;;;;;5052430;28;20192;-80
2021/12/11 00:16:42;;;;;;;41.27;11.93;;;-0.50;99.90;;;;;;5070534;28;20209;-79
2021/12/11 00:19:24;;;;;;;55.37;12.83;;;-0.50;99.90;;;;;;5053404;28;20299;-78
2021/12/11 00:21:51;;;;;;;33.20;12.03;;;-0.50;99.90;;;;;;5060306;28;20200;-77
2021/12/11 00:24:26;;;;;;;39.50;12.20;;;-0.60;99.90;;;;;;5052716;28;20188;-79
2021/12/11 00:26:58;;;;;;;39.50;12.53;;;-0.60;99.90;;;;;;5069839;28;20276;-79
2021/12/11 00:29:26;;;;;;;41.00;12.77;;;-0.60;99.90;;;;;;5070811;28;20225;-77
2021/12/11 00:31:58;;;;;;;44.53;12.73;;;-0.60;99.90;;;;;;5066082;28;20193;-77
2021/12/11 00:34:24;;;;;;;45.77;12.70;;;-0.50;99.90;;;;;;5068681;28;20181;-78
2021/12/11 00:37:11;;;;;;;24.43;12.37;;;-0.50;99.90;;;;;;5049601;28;20670;-76
2021/12/11 00:40:02;;;;;;;21.13;11.07;;;-0.50;99.90;;;;;;5057241;28;20239;-77
2021/12/11 00:42:33;;;;;;;29.43;11.97;;;-0.50;99.90;;;;;;5069008;28;20184;-80
2021/12/11 00:45:03;;;;;;;34.50;11.83;;;-0.50;99.90;;;;;;5059376;28;20304;-76
2021/12/11 00:47:32;;;;;;;28.27;12.10;;;-0.50;99.90;;;;;;5050036;28;20182;-75
2021/12/11 00:49:59;;;;;;;21.43;10.97;;;-0.50;99.90;;;;;;5068885;28;20693;-76
2021/12/11 00:52:39;;;;;;;22.87;12.00;;;-0.40;99.90;;;;;;5059501;28;20205;-78
2021/12/11 00:55:17;;;;;;;21.23;12.23;;;-0.30;99.90;;;;;;5073207;28;20185;-79
2021/12/11 00:57:44;;;;;;;21.00;11.10;;;-0.20;99.90;;;;;;5073664;28;20208;-78
2021/12/11 01:00:18;;;;;;;20.00;10.33;;;-0.20;99.90;;;;;;5073143;28;20209;-79
2021/12/11 01:02:44;;;;;;;19.03;10.70;;;-0.20;99.90;;;;;;5055388;28;20189;-79
2021/12/11 01:05:11;;;;;;;19.10;10.37;;;0.00;99.90;;;;;;5057213;28;20184;-79
2021/12/11 01:07:37;;;;;;;21.33;10.93;;;0.00;99.90;;;;;;5075341;28;20181;-79
2021/12/11 01:10:25;;;;;;;25.13;10.83;;;-0.20;99.90;;;;;;5075286;28;20201;-79
2021/12/11 01:13:02;;;;;;;24.47;10.53;;;-0.30;99.90;;;;;;5064901;28;20181;-80
2021/12/11 01:15:48;;;;;;;41.63;12.30;;;-0.20;99.90;;;;;;5069460;28;20181;-79
2021/12/11 01:21:07;;;;;;;21.20;11.40;;;-0.30;99.90;;;;;;5070060;28;20227;-77
2021/12/11 01:26:10;;;;;;;19.10;10.53;;;-0.30;99.90;;;;;;5070087;28;20583;-78
2021/12/11 01:28:37;;;;;;;23.60;10.00;;;-0.50;99.90;;;;;;5069321;28;21973;-79
2021/12/11 01:31:06;;;;;;;21.80;10.57;;;-0.50;99.90;;;;;;5069513;28;20181;-77
2021/12/11 01:33:32;;;;;;;20.30;10.20;;;-0.40;99.90;;;;;;5051750;28;20201;-79
2021/12/11 01:35:57;;;;;;;20.83;10.60;;;-0.40;99.90;;;;;;5054544;28;20595;-80
2021/12/11 01:38:29;;;;;;;20.03;10.43;;;-0.40;99.90;;;;;;5073406;28;20276;-77
2021/12/11 01:41:05;;;;;;;22.73;10.10;;;-0.40;99.90;;;;;;5053947;28;20261;-81
2021/12/11 01:43:34;;;;;;;31.47;11.63;;;-0.40;99.90;;;;;;5055420;28;20208;-79
2021/12/11 01:46:01;;;;;;;20.63;10.40;;;-0.50;99.90;;;;;;5073811;28;20561;-77
2021/12/11 01:48:34;;;;;;;21.10;10.23;;;-0.40;99.90;;;;;;5053608;28;20185;-79
2021/12/11 01:51:15;;;;;;;18.37;10.53;;;-0.40;99.90;;;;;;5054713;28;20181;-77
2021/12/11 01:53:50;;;;;;;23.03;10.40;;;-0.40;99.90;;;;;;5054932;28;20662;-76
2021/12/11 01:56:20;;;;;;;20.30;10.27;;;-0.30;99.90;;;;;;5054970;28;20242;-80
2021/12/11 01:58:58;;;;;;;27.07;11.13;;;-0.30;99.90;;;;;;5063520;28;20318;-80
2021/12/11 02:01:30;;;;;;;17.30;10.30;;;-0.30;99.90;;;;;;5071932;28;20220;-80
2021/12/11 02:03:58;;;;;;;19.33;10.53;;;-0.30;99.90;;;;;;5072024;28;20274;-82
2021/12/11 02:06:38;;;;;;;27.87;10.27;;;-0.30;99.90;;;;;;5052474;28;20178;-79
2021/12/11 02:09:32;;;;;;;22.43;11.77;;;-0.40;99.90;;;;;;5073016;28;20197;-79
2021/12/11 02:12:19;;;;;;;25.00;11.43;;;-0.40;99.90;;;;;;5069911;28;20195;-77
2021/12/11 02:14:50;;;;;;;18.43;10.20;;;-0.30;99.90;;;;;;5073162;28;20185;-77
2021/12/11 02:17:24;;;;;;;27.23;11.83;;;-0.40;99.90;;;;;;5073840;28;20169;-79
2021/12/11 02:19:51;;;;;;;21.00;10.73;;;-0.40;99.90;;;;;;5055369;28;20715;-78
2021/12/11 02:22:38;;;;;;;24.63;11.67;;;-0.30;99.90;;;;;;5072710;28;20181;-79
2021/12/11 02:25:08;;;;;;;19.70;10.27;;;-0.30;99.90;;;;;;5054547;28;20204;-79
2021/12/11 02:27:41;;;;;;;21.23;10.37;;;-0.30;99.90;;;;;;5063843;28;20209;-78
2021/12/11 02:30:18;;;;;;;27.33;10.77;;;-0.30;99.90;;;;;;5059004;28;20243;-78
2021/12/11 02:32:51;;;;;;;31.17;10.60;;;-0.30;99.90;;;;;;5071847;28;20526;-79
2021/12/11 02:35:52;;;;;;;27.20;10.33;;;-0.30;99.90;;;;;;5074060;28;20354;-80
2021/12/11 02:38:50;;;;;;;23.83;10.73;;;-0.30;99.90;;;;;;5019731;28;20200;-81
2021/12/11 02:41:22;;;;;;;35.80;11.00;;;-0.30;99.90;;;;;;5064261;28;20308;-78
2021/12/11 02:43:57;;;;;;;23.10;10.27;;;-0.40;99.90;;;;;;5054990;28;20192;-79
2021/12/11 02:46:33;;;;;;;65.57;12.53;;;-0.40;99.90;;;;;;5071630;28;20557;-81
2021/12/11 02:49:08;;;;;;;27.30;10.83;;;-0.50;99.90;;;;;;5055921;28;20316;-78
2021/12/11 02:51:44;;;;;;;34.77;10.10;;;-0.50;99.90;;;;;;5073228;28;20566;-80
2021/12/11 02:54:12;;;;;;;24.43;10.07;;;-0.50;99.90;;;;;;5073131;28;20224;-79
2021/12/11 02:56:52;;;;;;;26.67;11.00;;;-0.50;99.90;;;;;;5063089;28;20209;-78
2021/12/11 02:59:22;;;;;;;21.17;9.83;;;-0.40;99.90;;;;;;5054339;28;20224;-78
2021/12/11 03:02:05;;;;;;;27.07;9.93;;;-0.50;99.90;;;;;;5072574;28;20781;-78
2021/12/11 03:04:37;;;;;;;27.80;10.17;;;-0.40;99.90;;;;;;5072665;28;20229;-78
2021/12/11 03:07:08;;;;;;;54.93;10.83;;;-0.30;99.90;;;;;;5072354;28;20188;-78
2021/12/11 03:09:37;;;;;;;45.37;10.73;;;-0.40;99.90;;;;;;5073345;28;20288;-79
2021/12/11 03:12:08;;;;;;;23.53;10.00;;;-0.40;99.90;;;;;;5053937;28;20212;-78
2021/12/11 03:14:35;;;;;;;27.70;9.43;;;-0.50;99.90;;;;;;5072635;28;20602;-80
2021/12/11 03:17:01;;;;;;;23.93;9.60;;;-0.60;99.90;;;;;;5071853;28;20243;-80
2021/12/11 03:19:31;;;;;;;51.13;10.20;;;-0.60;99.90;;;;;;5073096;28;20201;-79
2021/12/11 03:21:59;;;;;;;34.03;9.30;;;-0.50;99.90;;;;;;5072256;28;20170;-78
2021/12/11 03:24:28;;;;;;;24.90;9.17;;;-0.50;99.90;;;;;;5054972;28;20174;-79
2021/12/11 03:26:55;;;;;;;32.30;10.17;;;-0.60;99.90;;;;;;5053603;28;20560;-79
2021/12/11 03:29:22;;;;;;;28.10;9.67;;;-0.70;99.90;;;;;;5072240;28;20660;-79
2021/12/11 03:31:48;;;;;;;35.03;10.30;;;-0.70;99.90;;;;;;5072920;28;20189;-79
2021/12/11 03:34:18;;;;;;;22.77;10.03;;;-0.70;99.90;;;;;;5054485;28;20181;-79
2021/12/11 03:36:44;;;;;;;24.77;9.37;;;-0.70;99.90;;;;;;5054367;28;20241;-79
2021/12/11 03:39:18;;;;;;;26.53;10.33;;;-0.60;99.90;;;;;;5073122;28;20206;-79
2021/12/11 03:41:47;;;;;;;28.30;10.63;;;-0.60;99.90;;;;;;5070522;28;20235;-78
2021/12/11 03:44:14;;;;;;;28.07;10.97;;;-0.60;99.90;;;;;;5062252;28;20515;-79
2021/12/11 03:46:40;;;;;;;26.63;9.03;;;-0.40;99.90;;;;;;5062008;28;20181;-78
2021/12/11 03:49:11;;;;;;;30.10;10.73;;;-0.50;99.90;;;;;;5054383;28;20205;-79
2021/12/11 03:51:39;;;;;;;32.43;9.97;;;-0.40;99.90;;;;;;5054144;28;20174;-78
2021/12/11 03:54:08;;;;;;;18.07;9.40;;;-0.40;99.90;;;;;;5053686;28;20177;-79
2021/12/11 03:56:35;;;;;;;32.13;9.53;;;-0.50;99.90;;;;;;5071288;28;20184;-79
2021/12/11 03:59:08;;;;;;;29.47;9.27;;;-0.50;99.90;;;;;;5070934;28;20273;-77
2021/12/11 04:01:40;;;;;;;24.27;9.17;;;-0.60;99.90;;;;;;5053556;28;20303;-79
2021/12/11 04:04:11;;;;;;;28.23;9.33;;;-0.50;99.90;;;;;;5072083;28;20174;-81
2021/12/11 04:06:37;;;;;;;15.67;9.10;;;-0.60;99.90;;;;;;5071344;28;20184;-81
2021/12/11 04:09:08;;;;;;;20.10;9.47;;;-0.60;99.90;;;;;;5054150;28;20563;-81
2021/12/11 04:11:36;;;;;;;31.77;10.30;;;-0.60;99.90;;;;;;5054400;28;20192;-79
2021/12/11 04:14:10;;;;;;;25.87;9.17;;;-0.60;99.90;;;;;;5071853;28;20181;-78
2021/12/11 04:16:36;;;;;;;17.20;8.87;;;-0.70;99.90;;;;;;5071705;28;20181;-79
2021/12/11 04:19:05;;;;;;;24.57;9.30;;;-0.70;99.90;;;;;;5060863;28;20234;-79
2021/12/11 04:21:31;;;;;;;23.33;9.23;;;-0.60;99.90;;;;;;5053210;28;20204;-78
2021/12/11 04:23:57;;;;;;;27.70;9.53;;;-0.60;99.90;;;;;;5071192;28;20186;-79
2021/12/11 04:26:23;;;;;;;17.33;9.67;;;-0.60;99.90;;;;;;5071309;28;20184;-79
2021/12/11 04:28:49;;;;;;;28.67;8.93;;;-0.60;99.90;;;;;;5070710;28;20307;-78
2021/12/11 04:31:20;;;;;;;22.30;10.00;;;-0.60;99.90;;;;;;5051786;28;20197;-81
2021/12/11 04:33:50;;;;;;;17.97;9.03;;;-0.50;99.90;;;;;;5069700;28;20185;-80
2021/12/11 04:36:20;;;;;;;19.97;9.23;;;-0.50;99.90;;;;;;5059934;28;20182;-81
2021/12/11 04:38:47;;;;;;;20.97;8.47;;;-0.50;99.90;;;;;;5061300;28;20221;-81
2021/12/11 04:41:21;;;;;;;19.20;8.63;;;-0.60;99.90;;;;;;5070769;28;20205;-79
2021/12/11 04:43:52;;;;;;;24.37;8.73;;;-0.60;99.90;;;;;;5061926;28;20184;-79
2021/12/11 04:46:18;;;;;;;25.83;9.23;;;-0.60;99.90;;;;;;5053319;28;20252;-79
2021/12/11 04:49:07;;;;;;;28.40;8.93;;;-0.60;99.90;;;;;;5070737;28;20220;-79
2021/12/11 04:51:44;;;;;;;17.13;8.57;;;-0.60;99.90;;;;;;5068273;28;20188;-79
2021/12/11 05:13:22;;;;;;;18.87;8.63;;;-0.80;99.90;;;;;;5069123;28;20165;-75
2021/12/11 05:15:51;;;;;;;29.57;8.23;;;-0.70;99.90;;;;;;5050073;28;20213;-78
2021/12/11 05:18:20;;;;;;;17.03;8.63;;;-0.80;99.90;;;;;;5056760;28;20603;-78
2021/12/11 05:20:48;;;;;;;31.27;8.37;;;-0.80;99.90;;;;;;5066912;28;20302;-78
2021/12/11 05:23:16;;;;;;;21.53;8.00;;;-0.90;99.90;;;;;;5046567;28;20341;-80
2021/12/11 05:25:43;;;;;;;15.47;8.60;;;-0.90;99.90;;;;;;5067968;28;20603;-77
2021/12/11 05:28:08;;;;;;;17.73;8.47;;;-1.00;99.90;;;;;;5067427;28;20169;-77
2021/12/11 05:30:39;;;;;;;23.53;9.30;;;-0.90;99.90;;;;;;5050454;28;20740;-77
2021/12/11 05:33:06;;;;;;;26.00;8.63;;;-0.90;99.90;;;;;;5068031;28;20186;-79
2021/12/11 05:35:36;;;;;;;24.43;8.80;;;-0.90;99.90;;;;;;5069035;28;20182;-81
2021/12/11 05:38:03;;;;;;;23.47;8.60;;;-1.00;99.90;;;;;;5068666;28;20177;-80
2021/12/11 05:40:31;;;;;;;29.67;8.17;;;-1.10;99.90;;;;;;5057387;28;20211;-79
2021/12/11 05:42:57;;;;;;;28.43;9.77;;;-1.00;99.90;;;;;;5050898;28;20636;-79
2021/12/11 05:45:24;;;;;;;31.30;9.90;;;-1.10;99.90;;;;;;5069023;28;20185;-78
2021/12/11 05:47:50;;;;;;;21.80;8.70;;;-1.10;99.90;;;;;;5068313;28;20184;-77
2021/12/11 05:50:27;;;;;;;20.23;9.20;;;-1.10;99.90;;;;;;5066884;28;20198;-79
2021/12/11 05:52:53;;;;;;;41.37;10.23;;;-1.00;99.90;;;;;;5050437;28;20621;-78
2021/12/11 05:55:21;;;;;;;26.33;10.10;;;-1.10;99.90;;;;;;5067440;28;20192;-78
2021/12/11 05:57:54;;;;;;;22.03;9.30;;;-1.10;99.90;;;;;;5067963;28;20190;-77
2021/12/11 06:00:28;;;;;;;22.97;9.63;;;-1.10;99.90;;;;;;5067761;28;20197;-80
2021/12/11 06:02:54;;;;;;;35.57;9.67;;;-0.90;99.90;;;;;;5067588;28;20192;-81
2021/12/11 06:05:21;;;;;;;20.53;9.03;;;-1.00;99.90;;;;;;5049840;28;20216;-79
2021/12/11 06:07:46;;;;;;;34.23;10.87;;;-1.00;99.90;;;;;;5049377;28;20174;-80
2021/12/11 06:10:16;;;;;;;24.17;10.33;;;-1.00;99.90;;;;;;5067293;28;20208;-77
2021/12/11 06:12:43;;;;;;;20.90;9.70;;;-1.00;99.90;;;;;;5067272;28;20397;-75
2021/12/11 06:15:10;;;;;;;24.93;10.17;;;-0.90;99.90;;;;;;5050017;28;20184;-77
2021/12/11 06:17:38;;;;;;;34.20;10.33;;;-0.90;99.90;;;;;;5066889;28;20629;-77
2021/12/11 06:20:06;;;;;;;22.87;10.43;;;-0.80;99.90;;;;;;5048840;28;20194;-77
2021/12/11 06:22:35;;;;;;;25.17;9.60;;;-0.80;99.90;;;;;;5050647;28;20190;-80
2021/12/11 06:25:06;;;;;;;22.00;10.23;;;-0.80;99.90;;;;;;5052357;28;20554;-78
2021/12/11 06:27:32;;;;;;;27.90;10.37;;;-0.70;99.90;;;;;;5070195;28;20635;-78
2021/12/11 06:29:58;;;;;;;26.07;9.83;;;-0.80;99.90;;;;;;5069594;28;20298;-80
2021/12/11 06:32:25;;;;;;;23.47;10.37;;;-0.80;99.90;;;;;;5069443;28;20262;-80
2021/12/11 06:34:53;;;;;;;25.10;10.37;;;-0.80;99.90;;;;;;5050704;28;20268;-78
2021/12/11 06:37:21;;;;;;;36.80;12.37;;;-0.70;99.90;;;;;;5050529;28;20185;-78
2021/12/11 06:39:48;;;;;;;26.57;11.80;;;-0.70;99.90;;;;;;5068169;28;20204;-78
2021/12/11 06:42:15;;;;;;;31.20;12.53;;;-0.70;99.90;;;;;;5058644;28;20178;-77
2021/12/11 06:44:41;;;;;;;46.00;14.87;;;-0.70;99.90;;;;;;5066144;28;20192;-80
2021/12/11 06:47:09;;;;;;;33.43;13.57;;;-0.60;99.90;;;;;;5049916;28;20394;-75
2021/12/11 06:49:37;;;;;;;45.83;15.50;;;-0.70;99.90;;;;;;5051423;28;20197;-78
2021/12/11 06:52:06;;;;;;;34.97;14.97;;;-0.50;99.90;;;;;;5047402;28;20659;-81
2021/12/11 06:54:32;;;;;;;40.40;16.33;;;-0.50;99.90;;;;;;5072958;28;20257;-79
2021/12/11 06:56:58;;;;;;;30.73;14.23;;;-0.50;99.90;;;;;;5069700;28;20722;-77
2021/12/11 06:59:24;;;;;;;37.57;18.07;;;-0.50;99.90;;;;;;5051041;28;20223;-78
2021/12/11 07:01:50;;;;;;;37.37;15.97;;;-0.50;99.90;;;;;;5050539;28;20270;-77
2021/12/11 07:04:16;;;;;;;38.47;17.33;;;-0.50;99.90;;;;;;5065624;28;20177;-78
2021/12/11 07:06:45;;;;;;;44.80;19.73;;;-0.60;99.90;;;;;;5068904;28;20181;-78
2021/12/11 07:09:12;;;;;;;44.53;18.40;;;-0.60;99.90;;;;;;5051344;28;20200;-77
2021/12/11 07:11:39;;;;;;;45.90;19.10;;;-0.60;99.90;;;;;;5044645;28;20652;-77
2021/12/11 07:14:06;;;;;;;49.97;22.80;;;-0.60;99.90;;;;;;5051104;28;20235;-77
2021/12/11 07:16:32;;;;;;;39.93;18.50;;;-0.60;99.90;;;;;;5049234;28;20196;-77
2021/12/11 07:18:58;;;;;;;35.03;17.90;;;-0.50;99.90;;;;;;5046460;28;20197;-77
2021/12/11 07:21:24;;;;;;;35.37;17.87;;;-0.50;99.90;;;;;;5046964;28;20201;-79
2021/12/11 07:23:50;;;;;;;34.97;16.43;;;-0.60;99.90;;;;;;5066366;28;20545;-79
2021/12/11 07:26:28;;;;;;;33.73;15.57;;;-0.50;99.90;;;;;;5051089;28;20184;-77
2021/12/11 07:28:56;;;;;;;36.37;13.33;;;-0.50;99.90;;;;;;5051006;28;20193;-77
2021/12/11 07:31:23;;;;;;;32.30;15.43;;;-0.60;99.90;;;;;;5056658;28;20631;-78
2021/12/11 07:33:52;;;;;;;35.57;16.80;;;-0.50;99.90;;;;;;5064772;28;20190;-78
2021/12/11 07:36:18;;;;;;;32.83;14.17;;;-0.60;99.90;;;;;;5066810;28;20215;-76
2021/12/11 07:38:44;;;;;;;39.77;16.13;;;-0.60;99.90;;;;;;5047975;28;20589;-75
2021/12/11 07:41:11;;;;;;;31.13;14.77;;;-0.60;99.90;;;;;;5066825;28;20193;-78
2021/12/11 07:43:39;;;;;;;28.97;13.67;;;-0.60;99.90;;;;;;5066442;28;20247;-78
2021/12/11 07:46:07;;;;;;;33.73;14.40;;;-0.60;99.90;;;;;;5057914;28;20170;-76
2021/12/11 07:48:33;;;;;;;27.33;12.83;;;-0.60;99.90;;;;;;5048995;28;20185;-77
2021/12/11 07:50:59;;;;;;;29.57;13.60;;;-0.50;99.90;;;;;;5042109;28;20262;-80
2021/12/11 07:53:25;;;;;;;29.43;13.67;;;-0.40;99.90;;;;;;5061154;28;20287;-79
2021/12/11 07:55:53;;;;;;;30.37;12.90;;;-0.50;99.90;;;;;;5059366;28;20206;-79
2021/12/11 07:58:20;;;;;;;30.27;14.83;;;-0.40;99.90;;;;;;5061699;28;20246;-81
2021/12/11 08:00:47;;;;;;;26.63;13.87;;;-0.40;99.90;;;;;;5065129;28;20804;-76
2021/12/11 08:03:16;;;;;;;24.00;13.37;;;-0.40;99.90;;;;;;5048594;28;20189;-83
2021/12/11 08:05:43;;;;;;;27.43;12.97;;;-0.30;99.90;;;;;;5066491;28;20226;-80
2021/12/11 08:08:10;;;;;;;24.33;12.57;;;-0.20;99.90;;;;;;5056472;28;20188;-80
2021/12/11 08:10:38;;;;;;;29.07;13.77;;;-0.30;99.90;;;;;;5066349;28;20208;-79
2021/12/11 08:13:05;;;;;;;27.83;13.90;;;-0.40;99.90;;;;;;5049470;28;20192;-76
2021/12/11 08:15:31;;;;;;;24.97;13.30;;;-0.30;99.90;;;;;;5049104;28;20259;-78
2021/12/11 08:17:57;;;;;;;25.07;12.80;;;-0.40;99.90;;;;;;5048878;28;20196;-77
2021/12/11 08:20:28;;;;;;;28.00;15.40;;;-0.50;99.90;;;;;;5047486;28;20221;-79
2021/12/11 08:22:55;;;;;;;27.63;14.00;;;-0.40;99.90;;;;;;5049163;28;20174;-78
2021/12/11 08:25:25;;;;;;;24.03;12.10;;;-0.40;99.90;;;;;;5048975;28;20174;-77
2021/12/11 08:27:51;;;;;;;28.23;13.40;;;-0.40;99.90;;;;;;5065585;28;20712;-79
2021/12/11 08:30:17;;;;;;;31.27;13.83;;;-0.30;99.90;;;;;;5057746;28;20209;-77
2021/12/11 08:32:43;;;;;;;30.33;13.23;;;-0.40;99.90;;;;;;5048840;28;20562;-77
2021/12/11 08:35:11;;;;;;;27.77;13.97;;;-0.30;99.90;;;;;;5048662;28;20186;-80
2021/12/11 08:37:40;;;;;;;27.73;13.17;;;-0.20;99.90;;;;;;5058540;28;20186;-77
2021/12/11 08:40:11;;;;;;;30.60;13.93;;;-0.20;99.90;;;;;;5059058;28;20209;-80
2021/12/11 08:42:37;;;;;;;24.87;13.60;;;-0.20;99.90;;;;;;5060964;28;20756;-77
2021/12/11 08:45:07;;;;;;;28.80;13.87;;;-0.10;99.90;;;;;;5042121;28;20276;-78
2021/12/11 08:47:39;;;;;;;28.50;13.77;;;-0.10;99.90;;;;;;5045952;28;20246;-78
2021/12/11 08:50:08;;;;;;;24.20;12.80;;;-0.10;99.90;;;;;;5065405;28;20197;-78
2021/12/11 08:52:38;;;;;;;32.97;14.23;;;-0.10;99.90;;;;;;5054982;28;20655;-78
2021/12/11 08:55:08;;;;;;;28.07;13.93;;;0.00;99.90;;;;;;5046521;28;20181;-77
2021/12/11 08:57:39;;;;;;;30.97;14.17;;;0.00;99.90;;;;;;5046274;28;20193;-77
2021/12/11 09:00:48;;;;;;;29.50;14.10;;;-0.10;99.90;;;;;;5064213;28;20264;-79
2021/12/11 09:03:33;;;;;;;25.73;13.37;;;0.10;99.90;;;;;;5041759;28;20189;-79
2021/12/11 09:06:05;;;;;;;27.40;14.17;;;0.00;99.90;;;;;;5064333;28;20247;-79
2021/12/11 09:08:33;;;;;;;29.30;13.47;;;0.10;99.90;;;;;;5063712;28;20181;-77
2021/12/11 09:11:08;;;;;;;24.20;12.37;;;0.10;99.90;;;;;;5046803;28;20188;-78
2021/12/11 09:13:50;;;;;;;22.57;12.60;;;0.10;99.90;;;;;;5065337;28;20189;-78
2021/12/11 09:16:28;;;;;;;25.20;12.77;;;0.20;99.90;;;;;;5063932;28;20384;-81
2021/12/11 09:19:12;;;;;;;22.00;11.90;;;0.20;99.90;;;;;;5061539;28;20301;-78
2021/12/11 09:21:40;;;;;;;19.73;11.37;;;0.10;99.90;;;;;;5064701;28;20212;-77
2021/12/11 09:24:34;;;;;;;23.27;12.03;;;-0.10;99.90;;;;;;5061614;28;20209;-78
2021/12/11 09:27:11;;;;;;;19.73;11.13;;;-0.10;99.90;;;;;;5063781;28;20550;-80
2021/12/11 09:29:49;;;;;;;26.63;12.17;;;-0.30;99.90;;;;;;5053594;28;20224;-77
2021/12/11 09:32:14;;;;;;;25.03;11.53;;;-0.40;99.90;;;;;;5054280;28;20181;-79
2021/12/11 09:35:07;;;;;;;24.73;12.10;;;-0.50;99.90;;;;;;5044332;28;20185;-78
2021/12/11 09:37:35;;;;;;;31.60;13.03;;;-0.50;99.90;;;;;;5042698;28;20243;-78
2021/12/11 09:40:27;;;;;;;24.50;11.77;;;-0.50;99.90;;;;;;5043743;28;20201;-80
2021/12/11 09:42:52;;;;;;;34.63;14.23;;;-0.50;99.90;;;;;;5044406;28;20500;-77
2021/12/11 09:45:24;;;;;;;23.47;12.27;;;-0.40;99.90;;;;;;5040944;28;20181;-78
2021/12/11 09:47:58;;;;;;;23.40;12.10;;;-0.30;99.90;;;;;;5042753;28;20178;-78
2021/12/11 09:50:31;;;;;;;23.73;13.00;;;-0.30;99.90;;;;;;5039360;28;20210;-77
2021/12/11 09:52:57;;;;;;;25.20;12.10;;;-0.30;99.90;;;;;;5050019;28;20185;-76
2021/12/11 09:55:37;;;;;;;22.50;13.47;;;-0.20;99.90;;;;;;5055404;28;20205;-79
2021/12/11 09:58:06;;;;;;;16.87;10.33;;;-0.10;99.90;;;;;;5045512;28;20250;-77
2021/12/11 10:00:46;;;;;;;16.80;10.70;;;-0.10;99.90;;;;;;5040353;28;20264;-80
2021/12/11 10:03:15;;;;;;;21.13;10.70;;;0.00;99.90;;;;;;5044470;28;20192;-80
2021/12/11 10:05:55;;;;;;;17.97;10.77;;;0.00;99.90;;;;;;5046445;28;20286;-79
2021/12/11 10:08:36;;;;;;;17.43;10.23;;;0.20;99.90;;;;;;5059416;28;20303;-78
2021/12/11 10:11:14;;;;;;;18.17;12.33;;;0.20;99.90;;;;;;5047077;28;20182;-77
2021/12/11 10:13:59;;;;;;;17.87;11.13;;;0.30;99.90;;;;;;5059443;28;20534;-80
2021/12/11 10:16:30;;;;;;;19.00;10.07;;;0.40;99.90;;;;;;5046472;28;20192;-77
2021/12/11 10:18:57;;;;;;;17.53;9.80;;;0.30;99.90;;;;;;5062063;28;20205;-77
2021/12/11 10:21:37;;;;;;;22.50;11.10;;;0.40;99.90;;;;;;5046375;28;20206;-78
2021/12/11 10:24:09;;;;;;;18.67;10.73;;;0.50;99.90;;;;;;5064585;28;20727;-76
2021/12/11 10:26:35;;;;;;;19.40;11.27;;;0.40;99.90;;;;;;5046542;28;20295;-78
2021/12/11 10:29:06;;;;;;;19.13;11.60;;;0.40;99.90;;;;;;5046599;28;20770;-80
2021/12/11 10:31:34;;;;;;;17.33;11.13;;;0.50;99.90;;;;;;5046328;28;20542;-81
2021/12/11 10:34:03;;;;;;;18.67;10.60;;;0.50;99.90;;;;;;5062812;28;20189;-79
2021/12/11 10:36:31;;;;;;;18.47;10.30;;;0.50;99.90;;;;;;5061477;28;20189;-79
2021/12/11 10:39:00;;;;;;;17.83;9.90;;;0.60;99.90;;;;;;5043226;28;20205;-79
2021/12/11 10:41:27;;;;;;;17.63;10.23;;;0.60;99.90;;;;;;5045833;28;20671;-80
2021/12/11 10:43:56;;;;;;;17.53;11.07;;;0.60;99.90;;;;;;5045076;28;20182;-78
2021/12/11 10:46:33;;;;;;;19.67;12.03;;;0.60;99.90;;;;;;5063394;28;20711;-78
2021/12/11 10:48:59;;;;;;;19.33;10.83;;;0.60;99.90;;;;;;5049913;28;20346;-78
2021/12/11 10:51:31;;;;;;;18.57;11.20;;;0.60;99.90;;;;;;5048110;28;20199;-81
2021/12/11 10:53:57;;;;;;;17.43;11.40;;;0.70;99.90;;;;;;5063836;28;20178;-79
2021/12/11 10:56:25;;;;;;;16.20;10.40;;;0.70;99.90;;;;;;5044284;28;20193;-79
2021/12/11 10:58:56;;;;;;;18.87;11.13;;;0.70;99.90;;;;;;5061829;28;20236;-78
2021/12/11 11:01:33;;;;;;;20.17;11.47;;;0.80;99.90;;;;;;5062981;28;20201;-77
2021/12/11 11:04:05;;;;;;;19.20;11.60;;;0.90;99.90;;;;;;5048708;28;20177;-77
2021/12/11 11:06:31;;;;;;;17.80;10.97;;;0.90;99.90;;;;;;5063358;28;20178;-78
2021/12/11 11:08:57;;;;;;;17.73;10.73;;;0.90;99.90;;;;;;5045464;28;20278;-78
2021/12/11 11:11:25;;;;;;;19.50;12.50;;;0.90;99.90;;;;;;5063791;28;20263;-77
2021/12/11 11:13:51;;;;;;;19.57;11.57;;;0.80;99.90;;;;;;5045709;28;20192;-78
2021/12/11 11:16:19;;;;;;;18.73;10.53;;;0.80;99.90;;;;;;5046168;28;20209;-76
2021/12/11 11:18:45;;;;;;;17.10;10.43;;;0.80;99.90;;;;;;5065503;28;20198;-78
2021/12/11 11:21:19;;;;;;;18.77;11.37;;;0.80;99.90;;;;;;5043917;28;20202;-77
2021/12/11 11:23:47;;;;;;;18.83;11.87;;;0.90;99.90;;;;;;5058472;28;20178;-76
2021/12/11 11:26:20;;;;;;;19.23;11.10;;;0.80;99.90;;;;;;5057154;28;20652;-79
2021/12/11 11:28:46;;;;;;;17.13;11.57;;;0.80;99.90;;;;;;5056280;28;20685;-79
2021/12/11 11:31:16;;;;;;;18.97;11.13;;;0.80;99.90;;;;;;5066742;28;20457;-78
2021/12/11 11:33:43;;;;;;;20.43;12.00;;;0.80;99.90;;;;;;5067179;28;20180;-78
2021/12/11 11:36:13;;;;;;;16.67;10.30;;;0.80;99.90;;;;;;5048862;28;20292;-78
2021/12/11 11:38:41;;;;;;;16.83;11.10;;;0.90;99.90;;;;;;5065549;28;20181;-79
2021/12/11 11:41:18;;;;;;;18.20;10.90;;;1.00;99.90;;;;;;5065913;28;20755;-79
2021/12/11 11:43:45;;;;;;;17.47;10.90;;;1.00;99.90;;;;;;5058893;28;20785;-79
2021/12/11 11:46:12;;;;;;;15.83;10.30;;;1.10;99.90;;;;;;5068216;28;20188;-79
2021/12/11 11:48:44;;;;;;;18.27;11.00;;;1.10;99.90;;;;;;5068332;28;20182;-80
2021/12/11 11:51:18;;;;;;;17.33;10.53;;;1.10;99.90;;;;;;5049880;28;20213;-77
2021/12/11 11:53:44;;;;;;;16.17;10.13;;;1.20;99.90;;;;;;5067154;28;20276;-77
2021/12/11 11:56:13;;;;;;;16.73;11.50;;;1.20;99.90;;;;;;5067607;28;20587;-78
2021/12/11 11:58:39;;;;;;;15.17;10.70;;;1.20;99.90;;;;;;5066225;28;20208;-78
2021/12/11 12:01:12;;;;;;;17.97;10.23;;;1.30;99.90;;;;;;5065357;28;20289;-77
2021/12/11 12:03:38;;;;;;;18.97;10.87;;;1.40;99.90;;;;;;5084799;28;20281;-80
2021/12/11 12:06:10;;;;;;;22.53;12.63;;;1.30;99.90;;;;;;5069947;28;20256;-80
2021/12/11 12:08:37;;;;;;;21.33;12.70;;;1.30;99.90;;;;;;5050878;28;20452;-81
2021/12/11 12:11:05;;;;;;;26.00;13.43;;;1.30;99.90;;;;;;5050160;28;20189;-78
2021/12/11 12:13:32;;;;;;;15.93;11.07;;;1.40;99.90;;;;;;5067478;28;20186;-81
2021/12/11 12:16:05;;;;;;;16.73;10.67;;;1.40;99.90;;;;;;5047231;28;20188;-80
2021/12/11 12:18:32;;;;;;;16.07;11.60;;;1.40;99.90;;;;;;5044019;28;20178;-83
2021/12/11 12:20:58;;;;;;;17.10;10.53;;;1.40;99.90;;;;;;5047259;28;20201;-81
2021/12/11 12:23:31;;;;;;;14.57;10.07;;;1.40;99.90;;;;;;5047717;28;20636;-79
2021/12/11 12:26:01;;;;;;;15.33;9.90;;;1.50;99.90;;;;;;5046967;28;20422;-82
2021/12/11 12:28:28;;;;;;;15.00;10.03;;;1.60;99.90;;;;;;5068559;28;20554;-82
2021/12/11 12:30:58;;;;;;;18.73;11.40;;;1.60;99.90;;;;;;5048648;28;20182;-81
2021/12/11 12:33:24;;;;;;;14.87;10.80;;;1.60;99.90;;;;;;5049016;28;20211;-79
2021/12/11 12:35:50;;;;;;;18.73;11.27;;;1.60;99.90;;;;;;5045985;28;20182;-80
2021/12/11 12:38:18;;;;;;;19.83;12.20;;;1.60;99.90;;;;;;5045687;28;20685;-80
2021/12/11 12:40:55;;;;;;;16.17;10.87;;;1.60;99.90;;;;;;5063950;28;20266;-79
2021/12/11 12:46:09;;;;;;;14.83;10.53;;;1.70;99.90;;;;;;5061049;28;20228;-79
2021/12/11 12:48:35;;;;;;;13.10;9.23;;;1.70;99.90;;;;;;5041516;28;20186;-77
2021/12/11 12:51:05;;;;;;;13.60;10.10;;;1.70;99.90;;;;;;5046661;28;20185;-78
2021/12/11 12:53:35;;;;;;;16.30;9.97;;;1.80;99.90;;;;;;5045694;28;20769;-79
2021/12/11 12:56:10;;;;;;;14.67;8.67;;;1.70;99.90;;;;;;5042100;28;20181;-79
2021/12/11 12:58:49;;;;;;;12.03;8.60;;;1.70;99.90;;;;;;5045458;28;20204;-79
2021/12/11 13:01:20;;;;;;;13.07;8.20;;;1.60;99.90;;;;;;5041791;28;21221;-77
2021/12/11 13:03:47;;;;;;;12.83;8.63;;;1.70;99.90;;;;;;5065182;28;20183;-83
2021/12/11 13:06:24;;;;;;;15.93;10.50;;;1.70;99.90;;;;;;5047054;28;20184;-78
2021/12/11 13:09:12;;;;;;;13.43;8.90;;;1.60;99.90;;;;;;5045733;28;20228;-78
2021/12/11 13:11:46;;;;;;;14.13;9.17;;;1.60;99.90;;;;;;5066341;28;20192;-80
2021/12/11 13:14:13;;;;;;;14.50;9.43;;;1.70;99.90;;;;;;5047428;28;20520;-77
2021/12/11 13:16:42;;;;;;;13.50;9.27;;;1.60;99.90;;;;;;5047766;28;20247;-79
2021/12/11 13:19:11;;;;;;;17.00;9.40;;;1.60;99.90;;;;;;5048348;28;20634;-78